Time;durP1;ratioP1;P1;durP2;ratioP2;P2;SDS_P1;SDS_P2;PMS_P1;PMS_P2;Temp;Humidity;BMP_temperature;BMP_pressure;BME280_temperature;BME280_humidity;BME280_pressure;Samples;Min_cycle;Max_cycle;Signal;HPM_P1;HPM_P2
2021/10/13 00:00:26;;;;;;;11.27;5.97;;;;;;;5.67;100.00;95992.34;1030811;28;20018;-66
2021/10/13 00:00:56;;;;;;;11.10;6.93;;;;;;;5.68;100.00;95986.09;1031252;28;20030;-65
2021/10/13 00:01:27;;;;;;;10.02;6.50;;;;;;;5.70;100.00;95983.25;1031013;28;20033;-66
2021/10/13 00:01:57;;;;;;;12.00;6.25;;;;;;;5.68;100.00;95986.88;1026891;28;20512;-65
2021/10/13 00:02:27;;;;;;;12.85;6.95;;;;;;;5.65;100.00;95992.53;1027326;28;20022;-66
2021/10/13 00:02:58;;;;;;;11.30;6.40;;;;;;;5.65;100.00;95991.75;1022754;28;20023;-65
2021/10/13 00:03:28;;;;;;;13.93;6.93;;;;;;;5.64;100.00;95990.97;1027273;28;20183;-66
2021/10/13 00:04:00;;;;;;;11.02;6.68;;;;;;;5.56;100.00;95972.28;1030925;28;20056;-65
2021/10/13 00:04:31;;;;;;;13.75;6.72;;;;;;;5.60;100.00;95986.41;1026879;28;20110;-66
2021/10/13 00:05:01;;;;;;;11.18;6.47;;;;;;;5.58;100.00;95991.84;1027018;28;20268;-65
2021/10/13 00:05:31;;;;;;;17.30;6.50;;;;;;;5.55;100.00;95991.50;1023066;29;20019;-64
2021/10/13 00:06:02;;;;;;;15.05;6.70;;;;;;;5.56;100.00;95993.09;1023107;28;20039;-66
2021/10/13 00:06:32;;;;;;;13.07;6.70;;;;;;;5.56;100.00;95987.88;1031203;28;20022;-66
2021/10/13 00:07:03;;;;;;;13.07;7.53;;;;;;;5.56;100.00;95993.88;1026692;28;20023;-66
2021/10/13 00:07:33;;;;;;;12.43;6.55;;;;;;;5.58;100.00;95996.28;1027281;28;20489;-67
2021/10/13 00:08:04;;;;;;;11.23;6.90;;;;;;;5.57;100.00;95995.50;1026077;28;20027;-65
2021/10/13 00:08:35;;;;;;;11.18;6.95;;;;;;;5.53;100.00;95988.34;1027163;28;20018;-66
2021/10/13 00:09:05;;;;;;;13.07;6.18;;;;;;;5.55;100.00;95997.50;1027165;28;20029;-67
2021/10/13 00:09:35;;;;;;;10.23;6.43;;;;;;;5.56;100.00;95993.09;1031009;28;20129;-65
2021/10/13 00:10:06;;;;;;;12.90;7.20;;;;;;;5.53;100.00;95996.94;1030983;28;20077;-66
2021/10/13 00:10:37;;;;;;;11.73;6.88;;;;;;;5.55;100.00;95996.72;1023268;28;20030;-63
2021/10/13 00:11:07;;;;;;;13.82;7.20;;;;;;;5.55;100.00;96004.53;1026824;28;20023;-66
2021/10/13 00:11:38;;;;;;;12.70;6.80;;;;;;;5.57;100.00;95999.91;1026953;28;20472;-64
2021/10/13 00:12:08;;;;;;;10.85;6.20;;;;;;;5.55;100.00;95999.31;1023072;28;20019;-66
2021/10/13 00:12:39;;;;;;;9.70;6.45;;;;;;;5.56;100.00;96000.91;1022895;28;20436;-65
2021/10/13 00:13:09;;;;;;;16.27;6.78;;;;;;;5.56;100.00;96008.72;1026935;28;20026;-65
2021/10/13 00:13:39;;;;;;;13.30;7.30;;;;;;;5.54;100.00;96002.94;1022901;28;20027;-65
2021/10/13 00:14:10;;;;;;;13.50;7.05;;;;;;;5.54;100.00;96006.34;1022885;28;20019;-65
2021/10/13 00:14:40;;;;;;;10.18;7.10;;;;;;;5.53;100.00;96007.34;1023235;29;20457;-65
2021/10/13 00:15:11;;;;;;;15.45;7.97;;;;;;;5.49;100.00;96002.81;1018457;29;20040;-65
2021/10/13 00:15:42;;;;;;;10.98;6.93;;;;;;;5.51;100.00;96004.19;1015200;29;20083;-65
2021/10/13 00:16:14;;;;;;;13.85;7.93;;;;;;;5.52;100.00;96002.38;1015485;29;20059;-66
2021/10/13 00:16:52;;;;;;;14.65;7.35;;;;;;;5.52;100.00;96002.38;1018979;29;20031;-66
2021/10/13 00:17:22;;;;;;;14.40;7.43;;;;;;;5.51;100.00;96000.78;1022965;28;20278;-66
2021/10/13 00:17:53;;;;;;;12.23;6.55;;;;;;;5.50;100.00;96007.00;1027455;28;20278;-64
2021/10/13 00:18:23;;;;;;;14.05;6.97;;;;;;;5.51;100.00;96011.22;1030877;28;20033;-66
2021/10/13 00:18:54;;;;;;;16.00;7.93;;;;;;;5.50;100.00;96015.63;1031287;28;20077;-66
2021/10/13 00:19:25;;;;;;;15.10;6.38;;;;;;;5.49;100.00;96008.03;1030078;28;20090;-66
2021/10/13 00:19:55;;;;;;;16.23;8.27;;;;;;;5.47;100.00;96005.66;1031219;28;20027;-66
2021/10/13 00:20:25;;;;;;;14.82;7.57;;;;;;;5.46;100.00;96009.25;1030885;28;20038;-66
2021/10/13 00:20:56;;;;;;;15.73;8.30;;;;;;;5.47;100.00;96010.06;1030955;28;20026;-65
2021/10/13 00:21:29;;;;;;;14.90;8.13;;;;;;;5.45;100.00;96007.69;1035077;28;20518;-66
2021/10/13 00:22:00;;;;;;;18.35;9.23;;;;;;;5.46;100.00;96011.06;1038950;28;20022;-66
2021/10/13 00:22:30;;;;;;;14.82;8.10;;;;;;;5.47;100.00;96012.69;1034901;28;20273;-65
2021/10/13 00:23:01;;;;;;;15.07;7.90;;;;;;;5.43;100.00;96010.50;1035010;28;20462;-65
2021/10/13 00:23:31;;;;;;;17.00;8.98;;;;;;;5.41;100.00;96012.53;1030713;28;20038;-65
2021/10/13 00:24:02;;;;;;;12.73;7.70;;;;;;;5.41;100.00;96009.94;1030921;28;20030;-66
2021/10/13 00:24:32;;;;;;;21.33;9.85;;;;;;;5.36;100.00;96007.19;1031031;28;20119;-65
2021/10/13 00:25:03;;;;;;;18.63;9.00;;;;;;;5.40;100.00;96010.97;1026882;28;20019;-66
2021/10/13 00:25:33;;;;;;;20.58;9.90;;;;;;;5.42;100.00;96008.13;1030674;28;20129;-65
2021/10/13 00:26:04;;;;;;;14.13;8.10;;;;;;;5.41;100.00;96012.53;1030838;28;20958;-65
2021/10/13 00:26:34;;;;;;;12.98;8.35;;;;;;;5.44;100.00;96019.91;1030985;28;20432;-66
2021/10/13 00:27:05;;;;;;;16.52;9.13;;;;;;;5.36;100.00;96012.41;1027194;28;20035;-66
2021/10/13 00:27:35;;;;;;;21.30;9.90;;;;;;;5.45;100.00;96020.69;1030729;28;20027;-66
2021/10/13 00:28:06;;;;;;;17.20;9.60;;;;;;;5.43;100.00;96017.50;1026421;28;20027;-66
2021/10/13 00:28:36;;;;;;;16.25;9.38;;;;;;;5.43;100.00;96014.91;1023095;28;20031;-66
2021/10/13 00:29:06;;;;;;;16.65;9.18;;;;;;;5.45;100.00;96018.09;1030809;28;20037;-65
2021/10/13 00:29:38;;;;;;;15.25;8.98;;;;;;;5.48;100.00;96022.06;1026949;28;20035;-66
2021/10/13 00:30:11;;;;;;;13.73;8.50;;;;;;;5.47;100.00;96020.47;1026978;28;20026;-65
2021/10/13 00:30:42;;;;;;;15.65;9.27;;;;;;;5.42;100.00;96018.53;1026892;28;20353;-66
2021/10/13 00:31:12;;;;;;;16.58;9.68;;;;;;;5.42;100.00;96016.72;1023696;28;20741;-66
2021/10/13 00:31:43;;;;;;;16.20;9.93;;;;;;;5.47;100.00;96023.09;1023130;28;20408;-66
2021/10/13 00:32:13;;;;;;;15.68;10.10;;;;;;;5.46;100.00;96019.66;1023073;29;20038;-65
2021/10/13 00:32:43;;;;;;;16.20;9.10;;;;;;;5.47;100.00;96017.88;1024193;28;20038;-65
2021/10/13 00:33:14;;;;;;;19.90;10.80;;;;;;;5.49;100.00;96024.44;1031054;28;20548;-65
2021/10/13 00:33:44;;;;;;;17.15;9.63;;;;;;;5.29;100.00;95992.69;1035196;28;20022;-65
2021/10/13 00:34:16;;;;;;;16.35;10.52;;;;;;;5.51;100.00;96021.63;1039080;28;20025;-66
2021/10/13 00:34:46;;;;;;;18.00;11.27;;;;;;;5.49;100.00;96018.44;1034903;28;20479;-65
2021/10/13 00:35:16;;;;;;;17.50;11.18;;;;;;;5.52;100.00;96023.19;1035242;28;20265;-66
2021/10/13 00:35:47;;;;;;;18.77;11.05;;;;;;;5.52;100.00;96025.78;1039093;28;20029;-65
2021/10/13 00:36:17;;;;;;;20.38;10.75;;;;;;;5.49;100.00;96027.03;1038869;28;20022;-65
2021/10/13 00:36:48;;;;;;;17.75;10.50;;;;;;;5.54;100.00;96026.38;1034952;28;20421;-66
2021/10/13 00:37:18;;;;;;;18.00;10.23;;;;;;;5.54;100.00;96032.38;1030689;28;20520;-65
2021/10/13 00:37:49;;;;;;;19.40;10.95;;;;;;;5.53;100.00;96033.38;1026510;28;20397;-65
2021/10/13 00:38:19;;;;;;;20.25;11.43;;;;;;;5.53;100.00;96030.75;1026560;28;20062;-65
2021/10/13 00:38:49;;;;;;;23.92;12.18;;;;;;;5.53;100.00;96028.16;1030836;28;20022;-65
2021/10/13 00:39:20;;;;;;;19.67;11.15;;;;;;;5.56;100.00;96029.53;1034976;28;20029;-66
2021/10/13 00:39:50;;;;;;;18.50;10.90;;;;;;;5.56;100.00;96029.53;1039278;28;20101;-66
2021/10/13 00:40:21;;;;;;;22.50;12.10;;;;;;;5.57;100.00;96036.34;1034867;28;20026;-66
2021/10/13 00:40:51;;;;;;;17.85;11.20;;;;;;;5.58;100.00;96032.72;1035084;28;20022;-65
2021/10/13 00:41:22;;;;;;;21.85;11.75;;;;;;;5.55;100.00;96027.94;1026734;28;20023;-66
2021/10/13 00:41:52;;;;;;;26.52;13.32;;;;;;;5.58;100.00;96032.72;1022853;29;20035;-65
2021/10/13 00:42:22;;;;;;;23.95;12.55;;;;;;;5.56;100.00;96034.75;1022870;28;20024;-65
2021/10/13 00:42:53;;;;;;;20.50;12.23;;;;;;;5.56;100.00;96032.94;1026298;28;20054;-66
2021/10/13 00:43:23;;;;;;;19.55;11.88;;;;;;;5.57;100.00;96034.53;1035029;28;20024;-65
2021/10/13 00:43:56;;;;;;;21.92;12.52;;;;;;;5.57;100.00;96031.94;1038810;28;20022;-66
2021/10/13 00:44:27;;;;;;;25.60;12.98;;;;;;;5.58;100.00;96037.94;1038563;28;20626;-66
2021/10/13 00:44:57;;;;;;;29.02;14.02;;;;;;;5.55;100.00;96027.94;1031129;28;20554;-65
2021/10/13 00:45:28;;;;;;;22.42;13.57;;;;;;;5.61;100.00;96033.06;1027199;28;20010;-66
2021/10/13 00:45:58;;;;;;;17.20;11.15;;;;;;;5.63;100.00;96035.44;1023169;29;20047;-66
2021/10/13 00:46:29;;;;;;;26.63;13.15;;;;;;;5.56;100.00;96026.94;1026653;28;20018;-65
2021/10/13 00:47:00;;;;;;;26.88;14.27;;;;;;;5.61;100.00;96030.47;1023175;28;20023;-65
2021/10/13 00:47:30;;;;;;;22.35;13.05;;;;;;;5.61;100.00;96034.88;1023469;28;20027;-65
2021/10/13 00:48:01;;;;;;;31.42;14.48;;;;;;;5.60;100.00;96036.69;1026307;28;20247;-65
2021/10/13 00:48:31;;;;;;;26.02;13.80;;;;;;;5.63;100.00;96038.03;1023112;28;20027;-65
2021/10/13 00:49:02;;;;;;;18.58;12.82;;;;;;;5.57;100.00;96025.94;1027509;28;20408;-65
2021/10/13 00:49:32;;;;;;;21.00;13.38;;;;;;;5.60;100.00;96035.88;1030686;28;20374;-63
2021/10/13 00:50:12;;;;;;;27.17;14.50;;;;;;;5.62;100.00;96034.63;1030826;28;20018;-67
2021/10/13 00:50:42;;;;;;;21.23;13.57;;;;;;;5.58;100.00;96030.13;1022898;29;20027;-65
2021/10/13 00:51:13;;;;;;;20.58;12.98;;;;;;;5.66;100.00;96040.97;1016570;29;20016;-66
2021/10/13 00:51:43;;;;;;;19.58;12.82;;;;;;;5.66;100.00;96040.19;1019231;29;20032;-65
2021/10/13 00:52:15;;;;;;;21.90;12.95;;;;;;;5.67;100.00;96039.97;1019397;28;20079;-66
2021/10/13 00:52:45;;;;;;;21.17;13.40;;;;;;;5.69;100.00;96042.34;1019374;28;20023;-66
2021/10/13 00:53:16;;;;;;;20.67;12.50;;;;;;;5.71;100.00;96044.75;1023099;29;20258;-66
2021/10/13 00:53:46;;;;;;;25.00;13.90;;;;;;;5.70;100.00;96040.53;1019115;29;20027;-66
2021/10/13 00:54:17;;;;;;;23.00;14.00;;;;;;;5.69;100.00;96039.75;1019825;28;20379;-65
2021/10/13 00:54:47;;;;;;;21.95;13.85;;;;;;;5.68;100.00;96036.34;1027063;28;20035;-66
2021/10/13 00:55:19;;;;;;;28.13;14.90;;;;;;;5.73;100.00;96040.09;1019012;29;20020;-66
2021/10/13 00:55:49;;;;;;;27.70;15.07;;;;;;;5.58;100.00;96017.09;1015346;29;20106;-66
2021/10/13 00:56:20;;;;;;;27.58;14.52;;;;;;;5.75;100.00;96044.06;1019030;29;20267;-66
2021/10/13 00:56:50;;;;;;;23.80;14.00;;;;;;;5.72;100.00;96033.31;1015649;29;20028;-66
2021/10/13 00:57:22;;;;;;;22.05;14.75;;;;;;;5.77;100.00;96036.00;1019197;29;20038;-66
2021/10/13 00:57:52;;;;;;;19.88;13.52;;;;;;;5.74;100.00;96039.09;1022384;29;20058;-66
2021/10/13 00:58:24;;;;;;;21.73;13.93;;;;;;;5.76;100.00;96039.66;1023294;28;20298;-66
2021/10/13 00:58:54;;;;;;;30.25;15.50;;;;;;;5.78;100.00;96043.63;1027234;28;20045;-66
2021/10/13 00:59:24;;;;;;;25.42;15.23;;;;;;;5.79;100.00;96047.78;1031182;28;20262;-66
2021/10/13 00:59:55;;;;;;;27.02;16.25;;;;;;;5.77;100.00;96047.25;1035634;28;20036;-64
2021/10/13 01:00:25;;;;;;;29.20;15.43;;;;;;;5.80;100.00;96043.38;1035375;28;20053;-65
2021/10/13 01:01:00;;;;;;;32.85;16.95;;;;;;;5.77;100.00;96041.22;1031163;28;20113;-66
2021/10/13 01:01:51;;;;;;;22.65;13.77;;;;;;;5.81;100.00;96048.38;1023295;29;20023;-66
2021/10/13 01:02:25;;;;;;;25.10;14.13;;;;;;;5.82;100.00;96051.78;1019360;29;20263;-66
2021/10/13 01:03:29;;;;;;;30.75;15.98;;;;;;;5.77;100.00;96042.03;1022830;29;20033;-66
2021/10/13 01:04:23;;;;;;;35.63;16.58;;;;;;;5.80;100.00;96056.41;1019720;29;20263;-67
2021/10/13 01:05:02;;;;;;;25.67;14.73;;;;;;;5.83;100.00;96051.53;1022904;28;20973;-66
2021/10/13 01:05:54;;;;;;;23.55;14.13;;;;;;;5.84;100.00;96060.16;1027169;28;20965;-64
2021/10/13 01:06:53;;;;;;;21.25;13.60;;;;;;;5.82;100.00;96055.16;1027066;28;20349;-66
2021/10/13 01:07:39;;;;;;;23.73;13.35;;;;;;;5.76;100.00;96058.66;1026282;28;20258;-66
2021/10/13 01:08:15;;;;;;;19.95;12.85;;;;;;;5.81;100.00;96053.59;1028819;28;20254;-66
2021/10/13 01:09:02;;;;;;;28.17;15.43;;;;;;;5.82;100.00;96052.56;1026885;28;20274;-66
2021/10/13 01:09:35;;;;;;;20.80;14.05;;;;;;;5.78;100.00;96048.81;1022875;29;20274;-65
2021/10/13 01:10:27;;;;;;;26.23;16.02;;;;;;;5.84;100.00;96060.94;1022955;29;20255;-65
2021/10/13 01:11:00;;;;;;;29.67;15.57;;;;;;;5.88;100.00;96064.69;1022964;29;20287;-65
2021/10/13 01:11:43;;;;;;;28.30;15.65;;;;;;;5.83;100.00;96045.53;1029929;28;20273;-66
2021/10/13 01:12:56;;;;;;;32.30;16.10;;;;;;;5.87;100.00;96065.72;1035200;28;20358;-66
2021/10/13 01:13:48;;;;;;;34.85;17.27;;;;;;;5.90;100.00;96070.47;1026627;28;20342;-66
2021/10/13 01:14:34;;;;;;;28.55;15.77;;;;;;;5.89;100.00;96066.25;1034843;28;20367;-65
2021/10/13 01:15:19;;;;;;;30.48;14.77;;;;;;;5.87;100.00;96068.31;1030885;28;20273;-67
2021/10/13 01:16:01;;;;;;;33.88;15.75;;;;;;;5.87;100.00;96067.53;1026741;28;20668;-66
2021/10/13 01:16:46;;;;;;;30.15;15.77;;;;;;;5.89;100.00;96071.47;1026972;28;20262;-66
2021/10/13 01:17:22;;;;;;;26.52;15.02;;;;;;;5.87;100.00;96070.94;1031309;28;20643;-66
2021/10/13 01:18:10;;;;;;;32.10;16.05;;;;;;;5.86;100.00;96071.91;1030208;28;20949;-65
2021/10/13 01:18:49;;;;;;;27.45;14.80;;;;;;;5.82;100.00;96065.56;1027103;28;20265;-66
2021/10/13 01:19:25;;;;;;;23.73;14.85;;;;;;;5.89;100.00;96068.88;1022952;29;20271;-65
2021/10/13 01:20:01;;;;;;;27.38;15.20;;;;;;;5.86;100.00;96071.91;1026824;28;20784;-66
2021/10/13 01:20:56;;;;;;;25.30;14.35;;;;;;;5.85;100.00;96067.75;1029612;28;20329;-65
2021/10/13 01:21:35;;;;;;;23.92;14.98;;;;;;;5.88;100.00;96071.72;1027200;28;20266;-66
2021/10/13 01:22:21;;;;;;;34.28;17.13;;;;;;;5.90;100.00;96077.47;1027209;28;20258;-66
2021/10/13 01:22:57;;;;;;;26.20;15.02;;;;;;;5.85;100.00;96070.34;1027622;28;20357;-66
2021/10/13 01:23:55;;;;;;;28.05;15.27;;;;;;;5.89;100.00;96070.69;1035134;28;20278;-65
2021/10/13 01:24:45;;;;;;;31.58;16.05;;;;;;;5.86;100.00;96066.72;1027523;28;20617;-66
2021/10/13 01:25:27;;;;;;;29.83;15.65;;;;;;;5.87;100.00;96072.75;1022940;29;20386;-65
2021/10/13 01:26:05;;;;;;;23.10;14.43;;;;;;;5.85;100.00;96065.13;1022719;28;20271;-66
2021/10/13 01:26:46;;;;;;;28.15;16.02;;;;;;;5.87;100.00;96063.09;1019083;29;20640;-66
2021/10/13 01:27:38;;;;;;;33.88;15.60;;;;;;;5.89;100.00;96073.28;1015274;29;20304;-64
2021/10/13 01:28:09;;;;;;;34.97;15.55;;;;;;;5.88;100.00;96069.09;1014449;29;20276;-66
2021/10/13 01:28:41;;;;;;;36.05;18.15;;;;;;;5.84;100.00;96068.75;1022984;29;20267;-66
2021/10/13 01:29:13;;;;;;;30.95;16.33;;;;;;;5.88;100.00;96066.50;1018914;29;20263;-65
2021/10/13 01:29:44;;;;;;;31.73;15.95;;;;;;;5.88;100.00;96074.31;1019848;29;20359;-66
2021/10/13 01:30:15;;;;;;;29.88;16.15;;;;;;;5.90;100.00;96080.91;1026944;28;20281;-67
2021/10/13 01:31:18;;;;;;;38.63;17.90;;;;;;;5.94;100.00;96068.25;1023261;28;20074;-66
2021/10/13 01:32:06;;;;;;;26.25;15.07;;;;;;;5.91;100.00;96082.47;1023287;28;20050;-66
2021/10/13 01:32:38;;;;;;;31.92;16.35;;;;;;;5.94;100.00;96075.28;1028548;28;20258;-66
2021/10/13 01:33:23;;;;;;;38.42;17.17;;;;;;;5.95;100.00;96082.06;1030839;28;20317;-65
2021/10/13 01:34:01;;;;;;;27.17;15.45;;;;;;;5.90;100.00;96072.25;1031047;28;20266;-66
2021/10/13 01:34:34;;;;;;;30.92;16.75;;;;;;;5.94;100.00;96072.66;1034908;28;20319;-67
2021/10/13 01:35:05;;;;;;;44.55;18.35;;;;;;;5.97;100.00;96082.59;1031092;28;21074;-66
2021/10/13 01:35:38;;;;;;;43.70;18.90;;;;;;;6.00;100.00;96076.94;1032409;28;20292;-66
2021/10/13 01:36:11;;;;;;;44.15;19.27;;;;;;;5.99;100.00;96077.97;1030947;28;20550;-66
2021/10/13 01:36:46;;;;;;;45.90;18.60;;;;;;;5.99;100.00;96080.59;1028661;28;20306;-66
2021/10/13 01:37:19;;;;;;;33.03;17.00;;;;;;;5.99;100.00;96070.97;1034694;28;20269;-66
2021/10/13 01:37:53;;;;;;;48.38;19.75;;;;;;;6.03;100.00;96076.50;1030395;28;20274;-66
2021/10/13 01:38:24;;;;;;;44.55;19.00;;;;;;;6.04;100.00;96078.13;1026625;28;20273;-66
2021/10/13 01:38:54;;;;;;;44.80;18.90;;;;;;;6.03;100.00;96076.50;1026862;28;20302;-66
2021/10/13 01:39:25;;;;;;;44.40;18.45;;;;;;;5.94;100.00;96067.47;1026745;28;20281;-66
2021/10/13 01:39:56;;;;;;;29.05;16.20;;;;;;;6.01;100.00;96076.75;1034961;28;20026;-66
2021/10/13 01:40:29;;;;;;;35.90;17.35;;;;;;;5.91;100.00;96064.25;1030915;28;20557;-66
2021/10/13 01:41:00;;;;;;;28.08;16.55;;;;;;;6.02;100.00;96074.94;1018723;29;20326;-66
2021/10/13 01:41:31;;;;;;;31.17;16.17;;;;;;;6.05;100.00;96084.91;1026780;28;20369;-66
2021/10/13 01:42:03;;;;;;;31.75;16.83;;;;;;;6.02;100.00;96075.72;1030838;28;20022;-66
2021/10/13 01:42:34;;;;;;;26.13;15.73;;;;;;;6.03;100.00;96076.50;1030905;28;20277;-66
2021/10/13 01:43:04;;;;;;;31.88;16.60;;;;;;;6.01;100.00;96079.34;1022728;29;20787;-66
2021/10/13 01:43:36;;;;;;;39.60;18.08;;;;;;;6.01;100.00;96086.38;1023138;29;20674;-66
2021/10/13 01:44:09;;;;;;;28.15;17.00;;;;;;;6.01;100.00;96081.16;1025942;28;20019;-66
2021/10/13 01:44:40;;;;;;;36.08;18.05;;;;;;;5.98;100.00;96079.00;1024430;28;20826;-66
2021/10/13 01:45:10;;;;;;;56.70;19.85;;;;;;;5.94;100.00;96078.66;1019983;28;20811;-66
2021/10/13 01:45:44;;;;;;;31.15;16.40;;;;;;;5.98;100.00;96079.00;1018419;29;20095;-66
2021/10/13 01:46:15;;;;;;;37.10;17.95;;;;;;;5.96;100.00;96076.59;1022518;29;20118;-67
2021/10/13 01:46:46;;;;;;;32.30;16.33;;;;;;;6.02;100.00;96080.13;1026822;28;20759;-65
2021/10/13 01:47:18;;;;;;;41.03;17.88;;;;;;;5.99;100.00;96080.59;1027118;28;20065;-66
2021/10/13 01:47:49;;;;;;;31.52;16.52;;;;;;;6.01;100.00;96078.56;1030060;28;20282;-66
2021/10/13 01:48:19;;;;;;;30.83;17.10;;;;;;;5.99;100.00;96083.97;1025396;28;20266;-67
2021/10/13 01:48:50;;;;;;;25.27;15.32;;;;;;;5.99;100.00;96083.19;1022702;29;20042;-66
2021/10/13 01:49:21;;;;;;;31.40;16.98;;;;;;;5.86;100.00;96077.13;1018489;29;20497;-66
2021/10/13 01:49:56;;;;;;;29.55;16.75;;;;;;;5.97;100.00;96082.59;1022626;29;20263;-66
2021/10/13 01:50:27;;;;;;;25.02;14.70;;;;;;;5.97;100.00;96085.22;1022856;29;20027;-66
2021/10/13 01:50:57;;;;;;;33.50;16.92;;;;;;;5.93;100.00;96084.06;1022313;29;20341;-66
2021/10/13 01:51:28;;;;;;;30.13;16.40;;;;;;;5.94;100.00;96083.88;1018915;29;20043;-66
2021/10/13 01:51:58;;;;;;;34.63;17.30;;;;;;;5.96;100.00;96087.03;1018603;29;20041;-66
2021/10/13 01:52:29;;;;;;;37.53;17.27;;;;;;;5.99;100.00;96093.59;1026616;28;20477;-66
2021/10/13 01:52:59;;;;;;;51.25;20.48;;;;;;;5.98;100.00;96084.22;1026682;28;20109;-66
2021/10/13 01:53:30;;;;;;;27.52;16.13;;;;;;;5.94;100.00;96089.09;1022552;29;20030;-66
2021/10/13 01:54:01;;;;;;;31.67;17.02;;;;;;;6.02;100.00;96090.56;1018634;29;20023;-66
2021/10/13 01:54:31;;;;;;;28.42;16.00;;;;;;;6.04;100.00;96093.75;1030800;28;20026;-65
2021/10/13 01:55:03;;;;;;;26.92;15.93;;;;;;;6.05;100.00;96095.31;1030514;28;20041;-66
2021/10/13 01:55:33;;;;;;;35.22;16.67;;;;;;;6.03;100.00;96089.53;1018733;29;20589;-66
2021/10/13 01:56:04;;;;;;;29.65;16.02;;;;;;;6.04;100.00;96094.53;1030544;28;20262;-66
2021/10/13 01:56:34;;;;;;;32.15;17.23;;;;;;;6.01;100.00;96084.56;1030663;28;20026;-66
2021/10/13 01:57:05;;;;;;;37.85;18.30;;;;;;;6.03;100.00;96092.13;1030933;28;20029;-66
2021/10/13 01:57:35;;;;;;;30.80;15.50;;;;;;;6.00;100.00;96100.41;1034330;28;20060;-66
2021/10/13 01:58:06;;;;;;;24.90;15.40;;;;;;;6.01;100.00;96096.78;1020475;28;20032;-64
2021/10/13 01:58:36;;;;;;;25.23;15.73;;;;;;;6.02;100.00;96100.97;1022884;28;20066;-65
2021/10/13 01:59:08;;;;;;;31.10;15.68;;;;;;;5.97;100.00;96093.03;1022784;28;20027;-66
2021/10/13 01:59:40;;;;;;;27.30;16.08;;;;;;;5.99;100.00;96094.41;1022532;29;20034;-65
2021/10/13 02:00:11;;;;;;;28.73;15.38;;;;;;;5.96;100.00;96094.84;1018537;29;20280;-67
2021/10/13 02:00:43;;;;;;;24.48;15.43;;;;;;;5.93;100.00;96091.91;1022465;29;20265;-66
2021/10/13 02:01:15;;;;;;;30.80;16.95;;;;;;;5.96;100.00;96097.44;1018756;29;20299;-66
2021/10/13 02:01:45;;;;;;;31.15;16.95;;;;;;;5.94;100.00;96098.72;1018964;29;20276;-66
2021/10/13 02:02:16;;;;;;;29.85;16.98;;;;;;;5.97;100.00;96103.44;1031008;28;21058;-66
2021/10/13 02:02:46;;;;;;;29.10;16.52;;;;;;;5.94;100.00;96111.72;1027129;28;20038;-65
2021/10/13 02:03:22;;;;;;;35.00;18.08;;;;;;;5.91;100.00;96111.13;1026457;28;20073;-65
2021/10/13 02:03:53;;;;;;;30.67;16.40;;;;;;;5.94;100.00;96104.72;1018764;29;20417;-66
2021/10/13 02:04:23;;;;;;;30.55;16.58;;;;;;;5.96;100.00;96112.28;1026525;28;20266;-66
2021/10/13 02:04:54;;;;;;;32.45;17.33;;;;;;;5.96;100.00;96113.06;1030584;28;20490;-66
2021/10/13 02:05:24;;;;;;;28.05;15.65;;;;;;;5.99;100.00;96106.63;1018620;29;20547;-66
2021/10/13 02:05:58;;;;;;;28.00;15.82;;;;;;;6.00;100.00;96109.03;1030469;28;20072;-66
2021/10/13 02:06:29;;;;;;;29.88;17.45;;;;;;;5.95;100.00;96106.28;1026815;28;20058;-66
2021/10/13 02:06:59;;;;;;;25.67;15.50;;;;;;;5.95;100.00;96110.72;1022446;29;20275;-67
2021/10/13 02:07:30;;;;;;;26.40;15.70;;;;;;;5.97;100.00;96113.84;1018486;29;20079;-65
2021/10/13 02:08:01;;;;;;;32.03;17.33;;;;;;;5.95;100.00;96102.91;1017998;29;20027;-66
2021/10/13 02:08:31;;;;;;;26.00;15.90;;;;;;;5.93;100.00;96097.09;1014761;29;20021;-65
2021/10/13 02:09:02;;;;;;;35.17;17.92;;;;;;;5.98;100.00;96105.06;1022664;28;20055;-65
2021/10/13 02:09:33;;;;;;;33.22;17.08;;;;;;;5.96;100.00;96112.28;1027188;28;20512;-65
2021/10/13 02:10:05;;;;;;;45.63;20.50;;;;;;;5.96;100.00;96104.47;1026586;28;20279;-65
2021/10/13 02:10:36;;;;;;;29.70;16.20;;;;;;;5.85;100.00;96101.59;1022783;29;20031;-67
2021/10/13 02:11:06;;;;;;;26.35;15.18;;;;;;;5.97;100.00;96106.03;1018581;29;20271;-65
2021/10/13 02:11:37;;;;;;;37.03;17.95;;;;;;;5.96;100.00;96101.88;1019321;28;20031;-64
2021/10/13 02:12:07;;;;;;;23.67;14.60;;;;;;;5.95;100.00;96100.28;1022798;28;20019;-65
2021/10/13 02:12:40;;;;;;;33.97;17.98;;;;;;;5.91;100.00;96105.13;1026489;28;20018;-65
2021/10/13 02:13:10;;;;;;;26.17;15.32;;;;;;;5.89;100.00;96102.72;1026464;28;20026;-66
2021/10/13 02:13:40;;;;;;;21.35;14.18;;;;;;;5.85;100.00;96096.38;1018490;29;20790;-65
2021/10/13 02:14:13;;;;;;;24.05;15.07;;;;;;;5.96;100.00;96107.06;1026337;28;20097;-65
2021/10/13 02:14:43;;;;;;;33.63;16.73;;;;;;;5.95;100.00;96113.31;1022497;29;20516;-66
2021/10/13 02:15:14;;;;;;;31.10;17.05;;;;;;;5.95;100.00;96105.50;1018505;29;20299;-66
2021/10/13 02:15:46;;;;;;;33.97;16.90;;;;;;;5.92;100.00;96106.69;1018390;29;20059;-65
2021/10/13 02:16:16;;;;;;;26.75;15.82;;;;;;;5.94;100.00;96099.50;1018693;29;20482;-64
2021/10/13 02:16:48;;;;;;;24.83;16.13;;;;;;;5.97;100.00;96103.44;1026545;28;20282;-65
2021/10/13 02:17:19;;;;;;;32.38;16.02;;;;;;;5.93;100.00;96115.34;1023140;28;20039;-65
2021/10/13 02:17:51;;;;;;;35.05;18.10;;;;;;;5.87;100.00;96110.00;1027287;28;20282;-66
2021/10/13 02:18:25;;;;;;;35.13;18.30;;;;;;;5.83;100.00;96108.81;1026537;28;20273;-66
2021/10/13 02:18:56;;;;;;;32.72;18.30;;;;;;;5.85;100.00;96113.81;1023399;28;20274;-66
2021/10/13 02:19:28;;;;;;;39.08;19.98;;;;;;;5.85;100.00;96117.22;1018477;29;20326;-66
2021/10/13 02:19:58;;;;;;;35.03;17.00;;;;;;;5.85;100.00;96122.44;1020609;28;20560;-64
2021/10/13 02:20:29;;;;;;;27.85;16.00;;;;;;;5.82;100.00;96117.66;1023012;28;20275;-65
2021/10/13 02:21:00;;;;;;;26.30;16.73;;;;;;;5.76;100.00;96104.72;1018562;29;20024;-66
2021/10/13 02:21:31;;;;;;;27.17;16.70;;;;;;;5.79;100.00;96120.69;1022844;29;20031;-65
2021/10/13 02:22:03;;;;;;;30.05;16.98;;;;;;;5.72;100.00;96106.19;1022477;29;20278;-66
2021/10/13 02:22:33;;;;;;;26.23;16.60;;;;;;;5.77;100.00;96125.34;1030869;28;20313;-66
2021/10/13 02:23:03;;;;;;;27.65;17.67;;;;;;;5.78;100.00;96118.34;1027018;28;20855;-65
2021/10/13 02:23:35;;;;;;;29.95;17.98;;;;;;;5.75;100.00;96116.19;1022698;29;20421;-66
2021/10/13 02:24:06;;;;;;;30.10;18.35;;;;;;;5.76;100.00;96121.16;1018796;29;20032;-63
2021/10/13 02:24:43;;;;;;;33.22;16.75;;;;;;;5.79;100.00;96123.31;1022850;29;20266;-67
2021/10/13 02:25:14;;;;;;;28.20;18.00;;;;;;;5.80;100.00;96124.91;1018865;29;20034;-65
2021/10/13 02:25:46;;;;;;;29.88;18.45;;;;;;;5.79;100.00;96127.72;1018965;29;20291;-66
2021/10/13 02:26:23;;;;;;;35.88;18.13;;;;;;;5.76;100.00;96117.75;1022643;29;20336;-67
2021/10/13 02:27:05;;;;;;;29.75;18.15;;;;;;;5.79;100.00;96125.91;1022840;29;20270;-65
2021/10/13 02:27:47;;;;;;;35.97;20.00;;;;;;;5.83;100.00;96129.66;1025498;28;20269;-66
2021/10/13 02:28:25;;;;;;;25.42;16.27;;;;;;;5.78;100.00;96126.16;1030535;28;20277;-66
2021/10/13 02:28:58;;;;;;;28.27;17.35;;;;;;;5.76;100.00;96128.97;1030505;28;20269;-66
2021/10/13 02:29:28;;;;;;;33.80;19.67;;;;;;;5.76;100.00;96136.78;1022484;29;20285;-66
2021/10/13 02:30:00;;;;;;;30.40;18.98;;;;;;;5.75;100.00;96135.19;1022698;29;20266;-65
2021/10/13 02:30:30;;;;;;;37.17;19.35;;;;;;;5.75;100.00;96132.59;1026227;28;20027;-66
2021/10/13 02:31:01;;;;;;;28.45;17.25;;;;;;;5.76;100.00;96139.38;1018716;29;20650;-66
2021/10/13 02:31:32;;;;;;;30.40;17.63;;;;;;;5.75;100.00;96137.78;1022803;29;20517;-66
2021/10/13 02:32:02;;;;;;;38.47;20.02;;;;;;;5.72;100.00;96133.03;1022505;29;20027;-66
2021/10/13 02:32:33;;;;;;;32.83;18.42;;;;;;;5.73;100.00;96136.41;1019073;28;20263;-65
2021/10/13 02:33:03;;;;;;;42.90;21.35;;;;;;;5.73;100.00;96139.81;1030528;28;20022;-66
2021/10/13 02:33:36;;;;;;;33.13;19.65;;;;;;;5.73;100.00;96141.63;1038699;28;20029;-65